createdAt,value
2022-10-09T00:00:02.337Z,8.99
2022-10-09T00:01:34.407Z,9.03
2022-10-09T00:03:06.765Z,9.00
2022-10-09T00:04:39.589Z,8.96
2022-10-09T00:06:14.607Z,8.97
2022-10-09T00:07:46.576Z,8.94
2022-10-09T00:09:19.729Z,8.97
2022-10-09T00:10:51.824Z,8.97
2022-10-09T00:12:23.944Z,8.99
2022-10-09T00:13:56.816Z,9.00
2022-10-09T00:15:28.926Z,9.01
2022-10-09T00:17:01.021Z,9.00
2022-10-09T00:18:33.890Z,8.99
2022-10-09T00:20:06.859Z,8.97
2022-10-09T00:21:38.910Z,8.93
2022-10-09T00:23:12.259Z,8.93
2022-10-09T00:24:44.247Z,8.87
2022-10-09T00:26:16.722Z,8.85
2022-10-09T00:27:49.696Z,8.80
2022-10-09T00:29:21.679Z,8.78
2022-10-09T00:30:54.202Z,8.75
2022-10-09T00:32:26.493Z,8.75
2022-10-09T00:33:58.481Z,8.77
2022-10-09T00:35:32.682Z,8.80
2022-10-09T00:37:04.705Z,8.79
2022-10-09T00:38:37.076Z,8.74
2022-10-09T00:40:09.291Z,8.74
2022-10-09T00:41:41.548Z,8.71
2022-10-09T00:43:18.854Z,8.73
2022-10-09T00:44:54.644Z,8.69
2022-10-09T00:46:33.908Z,8.73
2022-10-09T00:48:07.884Z,8.71
2022-10-09T00:49:42.713Z,8.67
2022-10-09T00:51:14.676Z,8.67
2022-10-09T00:52:47.988Z,8.67
2022-10-09T00:54:24.192Z,8.72
2022-10-09T00:55:56.585Z,8.67
2022-10-09T00:57:29.062Z,8.66
2022-10-09T00:59:01.562Z,8.67
2022-10-09T01:00:33.567Z,8.65
2022-10-09T01:02:05.823Z,8.65
2022-10-09T01:03:40.628Z,8.64
2022-10-09T01:05:13.871Z,8.66
2022-10-09T01:07:17.964Z,8.73
2022-10-09T01:09:23.583Z,8.79
2022-10-09T01:11:10.054Z,8.75
2022-10-09T01:12:51.921Z,8.69
2022-10-09T01:14:30.149Z,8.65
2022-10-09T01:16:04.053Z,8.58
2022-10-09T01:17:48.596Z,8.62
2022-10-09T01:19:36.416Z,8.55
2022-10-09T01:21:17.571Z,8.55
2022-10-09T01:23:04.321Z,8.59
2022-10-09T01:24:41.861Z,8.60
2022-10-09T01:26:17.164Z,8.59
2022-10-09T01:27:49.313Z,8.56
2022-10-09T01:29:22.036Z,8.59
2022-10-09T01:30:54.093Z,8.53
2022-10-09T01:32:33.670Z,8.52
2022-10-09T01:34:06.133Z,8.49
2022-10-09T01:35:39.246Z,8.48
2022-10-09T01:37:11.604Z,8.46
2022-10-09T01:38:44.820Z,8.45
2022-10-09T01:40:17.863Z,8.47
2022-10-09T01:41:51.646Z,8.51
2022-10-09T01:43:23.610Z,8.44
2022-10-09T01:44:55.543Z,8.44
2022-10-09T01:46:32.489Z,8.47
2022-10-09T01:48:05.148Z,8.40
2022-10-09T01:50:07.529Z,8.44
2022-10-09T01:51:54.140Z,8.42
2022-10-09T01:53:26.605Z,8.37
2022-10-09T01:55:04.415Z,8.35
2022-10-09T01:56:39.510Z,8.36
2022-10-09T01:58:21.172Z,8.43
2022-10-09T01:59:53.511Z,8.42
2022-10-09T02:01:34.180Z,8.41
2022-10-09T02:03:10.336Z,8.38
2022-10-09T02:04:43.824Z,8.35
2022-10-09T02:06:16.378Z,8.38
2022-10-09T02:07:48.466Z,8.30
2022-10-09T02:09:20.517Z,8.25
2022-10-09T02:10:55.525Z,8.24
2022-10-09T02:12:28.549Z,8.23
2022-10-09T02:14:00.631Z,8.20
2022-10-09T02:15:42.310Z,8.24
2022-10-09T02:17:22.590Z,8.22
2022-10-09T02:19:17.844Z,8.24
2022-10-09T02:20:55.491Z,8.23
2022-10-09T02:22:31.542Z,8.24
2022-10-09T02:24:07.501Z,8.23
2022-10-09T02:25:39.604Z,8.19
2022-10-09T02:27:12.818Z,8.22
2022-10-09T02:28:46.223Z,8.20
2022-10-09T02:30:18.217Z,8.26
2022-10-09T02:31:50.276Z,8.20
2022-10-09T02:33:33.432Z,8.26
2022-10-09T02:35:05.795Z,8.27
2022-10-09T02:36:38.459Z,8.27
2022-10-09T02:38:10.447Z,8.27
2022-10-09T02:39:43.957Z,8.29
2022-10-09T02:41:15.795Z,8.36
2022-10-09T02:42:47.918Z,8.30
2022-10-09T02:44:20.160Z,8.27
2022-10-09T02:45:52.203Z,8.25
2022-10-09T02:47:24.252Z,8.22
2022-10-09T02:48:56.158Z,8.22
2022-10-09T02:50:28.313Z,8.22
2022-10-09T02:52:00.332Z,8.21
2022-10-09T02:53:32.407Z,8.22
2022-10-09T02:55:04.671Z,8.22
2022-10-09T02:56:38.973Z,8.22
2022-10-09T02:58:11.284Z,8.21
2022-10-09T02:59:45.623Z,8.21
2022-10-09T03:01:18.104Z,8.14
2022-10-09T03:02:50.462Z,8.07
2022-10-09T03:04:22.632Z,8.02
2022-10-09T03:06:11.792Z,8.01
2022-10-09T03:07:51.421Z,7.93
2022-10-09T03:09:29.157Z,7.93
2022-10-09T03:11:03.581Z,7.91
2022-10-09T03:12:35.752Z,7.90
2022-10-09T03:14:07.710Z,7.87
2022-10-09T03:15:39.769Z,7.87
2022-10-09T03:17:11.726Z,7.83
2022-10-09T03:18:46.862Z,7.85
2022-10-09T03:20:18.915Z,7.82
2022-10-09T03:23:22.635Z,7.83
2022-10-09T03:24:54.732Z,7.87
2022-10-09T03:26:27.704Z,7.84
2022-10-09T03:27:59.675Z,7.78
2022-10-09T03:29:31.684Z,7.77
2022-10-09T03:31:04.201Z,7.74
2022-10-09T03:32:36.369Z,7.71
2022-10-09T03:34:08.457Z,7.70
2022-10-09T03:35:41.722Z,7.72
2022-10-09T03:37:13.699Z,7.66
2022-10-09T03:38:45.710Z,7.62
2022-10-09T03:40:17.690Z,7.60
2022-10-09T03:41:49.736Z,7.50
2022-10-09T03:43:21.696Z,7.49
2022-10-09T03:44:54.495Z,7.52
2022-10-09T03:46:26.535Z,7.56
2022-10-09T03:47:58.654Z,7.60
2022-10-09T03:49:30.662Z,7.58
2022-10-09T03:51:03.018Z,7.56
2022-10-09T03:52:36.647Z,7.60
2022-10-09T03:54:08.677Z,7.60
2022-10-09T03:55:40.810Z,7.59
2022-10-09T03:57:12.904Z,7.60
2022-10-09T03:58:44.910Z,7.57
2022-10-09T04:00:17.184Z,7.55
2022-10-09T04:01:49.250Z,7.56
2022-10-09T04:03:21.842Z,7.58
2022-10-09T04:04:53.957Z,7.58
2022-10-09T04:06:25.942Z,7.54
2022-10-09T04:07:57.935Z,7.52
2022-10-09T04:09:29.860Z,7.54
2022-10-09T04:11:02.173Z,7.55
2022-10-09T04:12:34.324Z,7.53
2022-10-09T04:14:07.067Z,7.54
2022-10-09T04:15:39.140Z,7.51
2022-10-09T04:17:11.148Z,7.54
2022-10-09T04:18:44.517Z,7.56
2022-10-09T04:21:49.216Z,7.49
2022-10-09T04:23:23.618Z,7.49
2022-10-09T04:24:55.618Z,7.47
2022-10-09T04:26:27.668Z,7.43
2022-10-09T04:27:59.611Z,7.41
2022-10-09T04:29:31.614Z,7.39
2022-10-09T04:31:04.621Z,7.40
2022-10-09T04:32:36.628Z,7.38
2022-10-09T04:34:08.649Z,7.37
2022-10-09T04:35:44.593Z,7.39
2022-10-09T04:37:16.829Z,7.35
2022-10-09T04:38:48.869Z,7.38
2022-10-09T04:40:20.853Z,7.42
2022-10-09T04:41:52.923Z,7.46
2022-10-09T04:43:25.061Z,7.52
2022-10-09T04:44:57.030Z,7.55
2022-10-09T04:46:29.095Z,7.55
2022-10-09T04:48:01.148Z,7.59
2022-10-09T04:49:33.244Z,7.62
2022-10-09T04:51:07.812Z,7.63
2022-10-09T04:52:39.827Z,7.61
2022-10-09T04:54:12.678Z,7.62
2022-10-09T04:55:46.490Z,7.63
2022-10-09T04:57:18.662Z,7.64
2022-10-09T04:58:53.099Z,7.72
2022-10-09T05:00:25.154Z,7.71
2022-10-09T05:02:00.361Z,7.76
2022-10-09T05:03:32.529Z,7.80
2022-10-09T05:05:04.960Z,7.86
2022-10-09T05:06:36.996Z,7.88
2022-10-09T05:08:09.102Z,7.93
2022-10-09T05:09:41.324Z,7.97
2022-10-09T05:11:19.146Z,8.02
2022-10-09T05:12:51.462Z,8.02
2022-10-09T05:14:23.775Z,8.04
2022-10-09T05:15:55.793Z,8.08
2022-10-09T05:17:28.199Z,8.13
2022-10-09T05:19:00.941Z,8.19
2022-10-09T05:20:32.920Z,8.23
2022-10-09T05:22:04.936Z,8.30
2022-10-09T05:23:37.012Z,8.34
2022-10-09T05:26:46.885Z,8.43
2022-10-09T05:28:18.997Z,8.53
2022-10-09T05:29:51.014Z,8.58
2022-10-09T05:31:26.012Z,8.65
2022-10-09T05:32:58.176Z,8.67
2022-10-09T05:34:30.558Z,8.71
2022-10-09T05:36:05.364Z,8.83
2022-10-09T05:37:37.359Z,8.87
2022-10-09T05:39:09.370Z,8.94
2022-10-09T05:40:52.463Z,9.05
2022-10-09T05:42:24.481Z,9.06
2022-10-09T05:44:01.359Z,9.17
2022-10-09T05:45:33.440Z,9.23
2022-10-09T05:47:05.476Z,9.29
2022-10-09T05:48:39.275Z,9.39
2022-10-09T05:50:11.269Z,9.45
2022-10-09T05:51:43.371Z,9.52
2022-10-09T05:55:02.201Z,9.67
2022-10-09T05:56:36.623Z,9.76
2022-10-09T05:58:08.942Z,9.81
2022-10-09T05:59:40.959Z,9.90
2022-10-09T06:01:13.164Z,9.97
2022-10-09T06:02:45.216Z,10.02
2022-10-09T06:04:23.269Z,10.15
2022-10-09T06:06:03.824Z,10.26
2022-10-09T06:07:35.829Z,10.29
2022-10-09T06:09:10.768Z,10.37
2022-10-09T06:10:43.059Z,10.45
2022-10-09T06:12:15.428Z,10.53
2022-10-09T06:13:48.530Z,10.64
2022-10-09T06:15:20.894Z,10.73
2022-10-09T06:16:53.254Z,10.83
2022-10-09T06:18:28.265Z,10.96
2022-10-09T06:20:00.488Z,11.06
2022-10-09T06:21:32.742Z,11.16
2022-10-09T06:23:05.182Z,11.26
2022-10-09T06:24:37.279Z,11.36
2022-10-09T06:26:11.887Z,11.50
2022-10-09T06:27:44.029Z,11.58
2022-10-09T06:29:16.236Z,11.67
2022-10-09T06:30:49.382Z,11.79
2022-10-09T06:32:21.729Z,11.85
2022-10-09T06:33:54.863Z,11.96
2022-10-09T06:35:27.282Z,12.03
2022-10-09T06:36:59.555Z,12.10
2022-10-09T06:38:31.955Z,12.20
2022-10-09T06:40:04.524Z,12.28
2022-10-09T06:41:36.904Z,12.34
2022-10-09T06:43:09.188Z,12.43
2022-10-09T06:44:43.781Z,12.52
2022-10-09T06:46:16.186Z,12.61
2022-10-09T06:47:48.551Z,12.68
2022-10-09T06:49:20.860Z,12.74
2022-10-09T06:50:53.170Z,12.82
2022-10-09T06:52:25.667Z,12.91
2022-10-09T06:53:59.909Z,13.00
2022-10-09T06:55:33.264Z,13.08
2022-10-09T06:57:05.101Z,13.21
2022-10-09T07:00:10.875Z,13.32
2022-10-09T07:01:43.520Z,13.41
2022-10-09T07:03:15.920Z,13.48
2022-10-09T07:04:48.359Z,13.54
2022-10-09T07:06:25.914Z,13.63
2022-10-09T07:07:58.218Z,13.68
2022-10-09T07:09:30.538Z,13.76
2022-10-09T07:11:12.195Z,13.87
2022-10-09T07:12:44.570Z,13.91
2022-10-09T07:14:16.936Z,14.00
2022-10-09T07:15:49.519Z,14.06
2022-10-09T07:17:21.884Z,14.13
2022-10-09T07:18:54.265Z,14.22
2022-10-09T07:20:26.324Z,14.27
2022-10-09T07:21:58.531Z,14.34
2022-10-09T07:23:31.893Z,14.44
2022-10-09T07:25:04.185Z,14.53
2022-10-09T07:26:38.680Z,14.56
2022-10-09T07:28:11.040Z,14.58
2022-10-09T07:29:43.325Z,14.62
2022-10-09T07:31:16.127Z,14.70
2022-10-09T07:32:48.705Z,14.74
2022-10-09T07:34:21.122Z,14.79
2022-10-09T07:35:57.451Z,14.87
2022-10-09T07:37:29.900Z,14.91
2022-10-09T07:39:02.366Z,14.99
2022-10-09T07:40:37.649Z,15.12
2022-10-09T07:42:09.920Z,15.15
2022-10-09T07:43:43.100Z,15.24
2022-10-09T07:45:15.349Z,15.30
2022-10-09T07:46:50.709Z,15.41
2022-10-09T07:48:22.974Z,15.45
2022-10-09T07:49:55.423Z,15.49
2022-10-09T08:15:41.111Z,16.81
2022-10-09T08:17:13.571Z,16.80
2022-10-09T08:18:45.956Z,16.88
2022-10-09T08:20:18.196Z,16.94
2022-10-09T08:21:50.667Z,17.02
2022-10-09T08:23:22.926Z,17.10
2022-10-09T08:24:55.231Z,17.20
2022-10-09T08:26:31.292Z,17.27
2022-10-09T08:28:04.831Z,17.33
2022-10-09T08:29:40.241Z,17.38
2022-10-09T08:31:17.291Z,17.48
2022-10-09T08:32:49.776Z,17.50
2022-10-09T08:34:22.266Z,17.57
2022-10-09T08:35:54.830Z,17.61
2022-10-09T08:37:27.097Z,17.68
2022-10-09T08:38:59.901Z,17.76
2022-10-09T08:41:19.819Z,17.90
2022-10-09T08:44:39.117Z,18.00
2022-10-09T08:46:22.905Z,18.09
2022-10-09T08:47:57.061Z,18.16
2022-10-09T08:49:37.611Z,18.19
2022-10-09T08:51:16.336Z,18.26
2022-10-09T08:53:08.766Z,18.32
2022-10-09T08:54:41.232Z,18.35
2022-10-09T08:56:15.263Z,18.45
2022-10-09T08:57:51.972Z,18.48
2022-10-09T08:59:24.234Z,18.56
2022-10-09T09:01:03.633Z,18.69
2022-10-09T09:02:52.869Z,18.77
2022-10-09T09:04:45.694Z,18.86
2022-10-09T09:06:26.944Z,18.94
2022-10-09T09:08:05.421Z,18.96
2022-10-09T09:09:59.302Z,19.04
2022-10-09T09:11:43.463Z,19.11
2022-10-09T09:13:43.547Z,19.14
2022-10-09T09:15:34.161Z,19.16
2022-10-09T09:17:24.561Z,19.20
2022-10-09T09:19:18.545Z,19.29
2022-10-09T09:20:55.854Z,19.35
2022-10-09T09:22:28.501Z,19.37
2022-10-09T09:24:04.083Z,19.42
2022-10-09T09:25:37.947Z,19.44
2022-10-09T09:27:14.746Z,19.51
2022-10-09T09:28:49.783Z,19.55
2022-10-09T09:30:25.783Z,19.59
2022-10-09T09:32:00.129Z,19.60
2022-10-09T09:34:05.067Z,19.72
2022-10-09T09:36:03.271Z,19.79
2022-10-09T09:37:37.853Z,19.79
2022-10-09T09:40:07.860Z,19.87
2022-10-09T09:41:06.282Z,19.87
2022-10-09T09:42:38.678Z,19.91
2022-10-09T09:44:12.350Z,19.98
2022-10-09T09:45:48.402Z,20.02
2022-10-09T09:47:45.015Z,20.14
2022-10-09T09:49:23.784Z,20.18
2022-10-09T09:51:16.119Z,20.25
2022-10-09T09:52:48.643Z,20.28
2022-10-09T09:54:29.036Z,20.36
2022-10-09T09:56:01.514Z,20.34
2022-10-09T09:57:37.593Z,20.41
2022-10-09T09:59:34.760Z,20.48
2022-10-09T10:01:08.045Z,20.46
2022-10-09T10:02:40.200Z,20.58
2022-10-09T10:04:19.978Z,20.61
2022-10-09T10:05:52.324Z,20.59
2022-10-09T10:07:35.861Z,20.66
2022-10-09T10:09:18.824Z,20.71
2022-10-09T10:10:53.915Z,20.73
2022-10-09T10:12:26.155Z,20.76
2022-10-09T10:13:58.591Z,20.80
2022-10-09T10:15:33.250Z,20.90
2022-10-09T10:17:05.525Z,20.91
2022-10-09T10:18:42.836Z,20.98
2022-10-09T10:20:18.646Z,21.05
2022-10-09T10:21:56.876Z,21.10
2022-10-09T10:23:55.643Z,21.11
2022-10-09T10:25:33.487Z,21.15
2022-10-09T10:27:34.555Z,21.21
2022-10-09T10:29:20.517Z,21.30
2022-10-09T10:30:53.133Z,21.36
2022-10-09T10:33:04.384Z,21.42
2022-10-09T10:34:44.245Z,21.46
2022-10-09T10:36:16.675Z,21.40
2022-10-09T10:38:10.514Z,21.48
2022-10-09T10:39:42.734Z,21.45
2022-10-09T10:41:24.942Z,21.52
2022-10-09T10:43:03.048Z,21.52
2022-10-09T10:44:51.233Z,21.59
2022-10-09T10:46:26.010Z,21.55
2022-10-09T10:47:59.383Z,21.56
2022-10-09T10:49:33.851Z,21.62
2022-10-09T10:51:44.748Z,21.67
2022-10-09T10:53:32.344Z,21.64
2022-10-09T10:55:21.596Z,21.69
2022-10-09T10:57:25.117Z,21.71
2022-10-09T10:59:21.599Z,21.73
2022-10-09T11:01:05.509Z,21.76
2022-10-09T11:02:47.719Z,21.74
2022-10-09T11:04:23.222Z,21.74
2022-10-09T11:06:19.524Z,21.81
2022-10-09T11:08:16.231Z,21.85
2022-10-09T11:10:06.912Z,21.88
2022-10-09T11:13:41.932Z,21.96
2022-10-09T11:15:27.129Z,22.00
2022-10-09T11:17:11.110Z,22.02
2022-10-09T11:19:11.908Z,22.13
2022-10-09T11:21:22.163Z,22.25
2022-10-09T11:23:11.803Z,22.30
2022-10-09T11:24:58.317Z,22.32
2022-10-09T11:27:03.136Z,22.36
2022-10-09T11:28:41.167Z,22.38
2022-10-09T11:30:15.933Z,22.40
2022-10-09T11:31:57.883Z,22.45
2022-10-09T11:33:39.131Z,22.41
2022-10-09T11:35:25.812Z,22.42
2022-10-09T11:36:59.685Z,22.45
2022-10-09T11:38:37.132Z,22.45
2022-10-09T11:40:18.730Z,22.48
2022-10-09T11:43:26.001Z,22.45
2022-10-09T11:45:03.528Z,22.47
2022-10-09T11:47:04.701Z,22.49
2022-10-09T11:49:08.545Z,22.54
2022-10-09T11:50:53.609Z,22.53
2022-10-09T11:52:47.366Z,22.55
2022-10-09T11:54:22.205Z,22.58
2022-10-09T11:56:32.897Z,22.60
2022-10-09T11:58:25.068Z,22.56
2022-10-09T12:00:07.850Z,22.67
2022-10-09T12:01:45.171Z,22.71
2022-10-09T12:03:33.712Z,22.75
2022-10-09T12:05:19.498Z,22.77
2022-10-09T12:06:55.100Z,22.74
2022-10-09T12:08:27.987Z,22.75
2022-10-09T12:10:08.974Z,22.77
2022-10-09T12:11:41.493Z,22.78
2022-10-09T12:13:44.672Z,22.84
2022-10-09T12:15:29.505Z,22.83
2022-10-09T12:17:02.320Z,22.76
2022-10-09T12:18:37.642Z,22.78
2022-10-09T12:20:19.231Z,22.77
2022-10-09T12:21:57.466Z,22.77
2022-10-09T12:23:32.886Z,22.77
2022-10-09T12:25:29.162Z,22.77
2022-10-09T12:27:03.736Z,22.79
2022-10-09T12:28:40.107Z,22.86
2022-10-09T12:30:15.075Z,22.93
2022-10-09T12:31:47.992Z,22.93
2022-10-09T12:33:31.158Z,22.99
2022-10-09T12:35:15.414Z,22.94
2022-10-09T12:36:47.810Z,22.79
2022-10-09T12:38:26.576Z,22.76
2022-10-09T12:40:09.700Z,22.78
2022-10-09T12:41:44.479Z,22.81
2022-10-09T12:43:19.517Z,22.83
2022-10-09T12:44:54.540Z,22.87
2022-10-09T12:46:27.525Z,22.83
2022-10-09T12:48:01.640Z,22.88
2022-10-09T12:49:34.239Z,22.86
2022-10-09T12:51:28.570Z,22.97
2022-10-09T12:53:04.350Z,23.01
2022-10-09T12:54:43.044Z,23.11
2022-10-09T12:56:25.553Z,23.15
2022-10-09T12:58:03.937Z,23.19
2022-10-09T12:59:36.377Z,23.24
2022-10-09T13:01:14.189Z,23.32
2022-10-09T13:02:46.720Z,23.35
2022-10-09T13:04:28.647Z,23.47
2022-10-09T13:06:02.276Z,23.44
2022-10-09T13:07:34.776Z,23.38
2022-10-09T13:09:08.243Z,23.35
2022-10-09T13:10:40.538Z,23.31
2022-10-09T13:12:22.778Z,23.36
2022-10-09T13:13:55.605Z,23.31
2022-10-09T13:15:37.849Z,23.38
2022-10-09T13:17:33.057Z,23.42
2022-10-09T13:19:05.493Z,23.39
2022-10-09T13:20:37.796Z,23.39
2022-10-09T13:22:21.638Z,23.35
2022-10-09T13:23:54.253Z,23.22
2022-10-09T13:25:29.006Z,23.15
2022-10-09T13:27:01.337Z,23.02
2022-10-09T13:28:33.790Z,22.96
2022-10-09T13:30:07.438Z,22.95
2022-10-09T13:31:43.734Z,22.93
2022-10-09T13:33:17.197Z,22.89
2022-10-09T13:34:49.415Z,22.87
2022-10-09T13:36:21.665Z,22.89
2022-10-09T13:37:54.039Z,22.89
2022-10-09T13:39:26.548Z,22.88
2022-10-09T13:40:59.242Z,22.89
2022-10-09T13:42:37.329Z,22.93
2022-10-09T13:44:09.662Z,22.89
2022-10-09T13:45:42.659Z,22.93
2022-10-09T13:47:15.215Z,22.95
2022-10-09T13:48:47.491Z,23.00
2022-10-09T13:50:20.234Z,23.00
2022-10-09T13:51:52.633Z,22.97
2022-10-09T13:53:24.996Z,22.93
2022-10-09T13:54:57.326Z,22.94
2022-10-09T13:56:30.029Z,22.95
2022-10-09T13:58:02.260Z,22.94
2022-10-09T13:59:34.828Z,22.90
2022-10-09T14:01:09.638Z,22.91
2022-10-09T14:02:42.058Z,22.88
2022-10-09T14:04:14.288Z,22.84
2022-10-09T14:05:46.413Z,22.82
2022-10-09T14:07:18.999Z,22.81
2022-10-09T14:08:51.586Z,22.74
2022-10-09T14:10:24.135Z,22.75
2022-10-09T14:11:56.638Z,22.74
2022-10-09T14:13:32.716Z,22.78
2022-10-09T14:15:05.682Z,22.71
2022-10-09T14:16:38.022Z,22.67
2022-10-09T14:18:10.369Z,22.69
2022-10-09T14:19:42.786Z,22.67
2022-10-09T14:21:16.321Z,22.67
2022-10-09T14:22:48.835Z,22.65
2022-10-09T14:24:21.359Z,22.64
2022-10-09T14:25:53.579Z,22.60
2022-10-09T14:27:25.942Z,22.54
2022-10-09T14:29:00.487Z,22.50
2022-10-09T14:32:09.522Z,22.47
2022-10-09T14:33:42.272Z,22.45
2022-10-09T14:35:17.114Z,22.38
2022-10-09T14:36:53.776Z,22.37
2022-10-09T14:38:26.090Z,22.35
2022-10-09T14:39:58.497Z,22.33
2022-10-09T14:41:34.290Z,22.33
2022-10-09T14:43:09.178Z,22.35
2022-10-09T14:44:41.745Z,22.33
2022-10-09T14:46:17.585Z,22.34
2022-10-09T14:47:49.901Z,22.33
2022-10-09T14:49:25.280Z,22.33
2022-10-09T14:51:03.287Z,22.28
2022-10-09T14:52:35.569Z,22.22
2022-10-09T14:54:08.645Z,22.19
2022-10-09T14:55:40.991Z,22.19
2022-10-09T14:57:13.567Z,22.13
2022-10-09T14:58:46.540Z,22.08
2022-10-09T15:00:18.946Z,22.03
2022-10-09T15:01:51.276Z,21.99
2022-10-09T15:03:23.853Z,21.96
2022-10-09T15:04:56.396Z,21.93
2022-10-09T15:06:28.633Z,21.88
2022-10-09T15:08:01.172Z,21.85
2022-10-09T15:09:33.460Z,21.80
2022-10-09T15:11:06.691Z,21.77
2022-10-09T15:12:38.851Z,21.78
2022-10-09T15:14:11.479Z,21.69
2022-10-09T15:15:43.686Z,21.61
2022-10-09T15:17:16.020Z,21.54
2022-10-09T15:18:52.629Z,21.51
2022-10-09T15:20:25.153Z,21.40
2022-10-09T15:21:57.398Z,21.33
2022-10-09T15:23:30.306Z,21.27
2022-10-09T15:25:02.866Z,21.16
2022-10-09T15:26:38.957Z,21.10
2022-10-09T15:28:11.539Z,21.00
2022-10-09T15:29:43.833Z,20.92
2022-10-09T15:31:33.914Z,20.87
2022-10-09T15:33:06.262Z,20.76
2022-10-09T15:34:40.995Z,20.68
2022-10-09T15:36:13.606Z,20.58
2022-10-09T15:37:45.818Z,20.50
2022-10-09T15:40:51.985Z,20.30
2022-10-09T15:42:24.306Z,20.20
2022-10-09T15:44:02.038Z,20.12
2022-10-09T15:45:35.466Z,20.02
2022-10-09T15:47:07.949Z,19.92
2022-10-09T15:48:40.423Z,19.85
2022-10-09T15:50:12.811Z,19.75
2022-10-09T15:51:45.352Z,19.67
2022-10-09T15:53:22.972Z,19.62
2022-10-09T15:54:55.303Z,19.50
2022-10-09T15:56:28.276Z,19.40
2022-10-09T15:58:00.534Z,19.31
2022-10-09T15:59:36.591Z,19.21
2022-10-09T16:01:11.585Z,19.13
2022-10-09T16:02:43.974Z,18.99
2022-10-09T16:04:16.370Z,18.88
2022-10-09T16:05:53.324Z,18.78
2022-10-09T16:07:25.735Z,18.63
2022-10-09T16:08:58.878Z,18.57
2022-10-09T16:10:31.337Z,18.48
2022-10-09T16:12:04.214Z,18.39
2022-10-09T16:13:42.514Z,18.36
2022-10-09T16:15:14.840Z,18.26
2022-10-09T16:16:48.976Z,18.20
2022-10-09T16:18:23.179Z,18.17
2022-10-09T16:19:55.627Z,18.05
2022-10-09T16:21:29.419Z,17.88
2022-10-09T16:23:01.895Z,17.73
2022-10-09T16:24:34.363Z,17.60
2022-10-09T16:26:06.888Z,17.48
2022-10-09T16:27:39.176Z,17.43
2022-10-09T16:29:11.618Z,17.37
2022-10-09T16:30:45.054Z,17.32
2022-10-09T16:32:17.213Z,17.31
2022-10-09T16:33:49.679Z,17.24
2022-10-09T16:35:23.066Z,17.21
2022-10-09T16:36:55.739Z,17.19
2022-10-09T16:38:28.068Z,17.11
2022-10-09T16:40:00.703Z,17.01
2022-10-09T16:41:33.198Z,16.92
2022-10-09T16:43:05.574Z,16.86
2022-10-09T16:44:38.112Z,16.82
2022-10-09T16:46:19.974Z,16.78
2022-10-09T16:47:52.411Z,16.70
2022-10-09T16:49:25.193Z,16.64
2022-10-09T16:50:58.882Z,16.61
2022-10-09T16:52:31.183Z,16.51
2022-10-09T16:54:05.422Z,16.49
2022-10-09T16:55:37.997Z,16.38
2022-10-09T16:57:10.398Z,16.30
2022-10-09T16:58:43.756Z,16.24
2022-10-09T17:00:19.106Z,16.21
2022-10-09T17:01:51.977Z,16.12
2022-10-09T17:03:24.323Z,16.03
2022-10-09T17:04:56.628Z,16.01
2022-10-09T17:06:29.036Z,15.98
2022-10-09T17:08:13.486Z,15.86
2022-10-09T17:09:45.578Z,15.89
2022-10-09T17:11:21.291Z,15.79
2022-10-09T17:12:53.519Z,15.68
2022-10-09T17:14:25.616Z,15.63
2022-10-09T17:15:57.965Z,15.55
2022-10-09T17:17:30.232Z,15.47
2022-10-09T17:19:03.175Z,15.44
2022-10-09T17:20:39.364Z,15.42
2022-10-09T17:22:11.713Z,15.35
2022-10-09T17:23:44.211Z,15.30
2022-10-09T17:25:16.572Z,15.26
2022-10-09T17:26:49.175Z,15.25
2022-10-09T17:28:21.916Z,15.21
2022-10-09T17:29:56.624Z,15.18
2022-10-09T17:31:29.439Z,15.16
2022-10-09T17:33:02.760Z,15.11
2022-10-09T17:34:35.090Z,15.06
2022-10-09T17:36:11.508Z,15.02
2022-10-09T17:37:43.759Z,15.00
2022-10-09T17:39:17.294Z,14.97
2022-10-09T17:40:49.648Z,14.89
2022-10-09T17:42:21.943Z,14.85
2022-10-09T17:43:56.139Z,14.84
2022-10-09T17:45:28.352Z,14.82
2022-10-09T17:47:01.390Z,14.80
2022-10-09T17:48:35.091Z,14.78
2022-10-09T17:50:08.027Z,14.78
2022-10-09T17:51:40.838Z,14.76
2022-10-09T17:53:14.907Z,14.73
2022-10-09T17:54:47.228Z,14.72
2022-10-09T17:56:19.565Z,14.71
2022-10-09T17:57:53.814Z,14.70
2022-10-09T17:59:26.227Z,14.72
2022-10-09T18:00:58.629Z,14.75
2022-10-09T18:02:31.138Z,14.77
2022-10-09T18:04:03.588Z,14.78
2022-10-09T18:05:46.662Z,14.83
2022-10-09T18:07:20.583Z,14.82
2022-10-09T18:08:55.394Z,14.85
2022-10-09T18:10:27.712Z,14.83
2022-10-09T18:12:00.047Z,14.82
2022-10-09T18:13:32.500Z,14.81
2022-10-09T18:15:05.319Z,14.82
2022-10-09T18:16:38.851Z,14.80
2022-10-09T18:18:12.258Z,14.80
2022-10-09T18:19:44.580Z,14.81
2022-10-09T18:21:18.027Z,14.76
2022-10-09T18:22:50.374Z,14.76
2022-10-09T18:24:22.661Z,14.67
2022-10-09T18:25:54.896Z,14.62
2022-10-09T18:27:29.408Z,14.60
2022-10-09T18:29:01.931Z,14.59
2022-10-09T18:30:34.593Z,14.61
2022-10-09T18:32:07.027Z,14.60
2022-10-09T18:33:39.471Z,14.61
2022-10-09T18:35:11.848Z,14.65
2022-10-09T18:36:44.501Z,14.64
2022-10-09T18:38:17.372Z,14.66
2022-10-09T18:39:49.834Z,14.65
2022-10-09T18:41:23.389Z,14.67
2022-10-09T18:42:55.737Z,14.65
2022-10-09T18:44:28.138Z,14.66
2022-10-09T18:46:01.298Z,14.70
2022-10-09T18:47:35.036Z,14.73
2022-10-09T18:49:09.735Z,14.71
2022-10-09T18:50:42.283Z,14.66
2022-10-09T18:52:15.003Z,14.65
2022-10-09T18:55:20.726Z,14.67
2022-10-09T18:56:53.486Z,14.67
2022-10-09T18:58:25.908Z,14.65
2022-10-09T18:59:58.606Z,14.65
2022-10-09T19:01:31.000Z,14.63
2022-10-09T19:03:03.309Z,14.63
2022-10-09T19:04:35.719Z,14.63
2022-10-09T19:06:08.402Z,14.59
2022-10-09T19:07:40.955Z,14.57
2022-10-09T19:09:13.702Z,14.54
2022-10-09T19:10:52.946Z,14.51
2022-10-09T19:12:25.875Z,14.47
2022-10-09T19:14:00.692Z,14.43
2022-10-09T19:15:32.668Z,14.40
2022-10-09T19:17:05.023Z,14.35
2022-10-09T19:18:37.696Z,14.33
2022-10-09T19:20:09.857Z,14.29
2022-10-09T19:21:44.232Z,14.24
2022-10-09T19:23:17.213Z,14.16
2022-10-09T19:24:49.701Z,14.10
2022-10-09T19:26:22.837Z,14.06
2022-10-09T19:27:54.878Z,14.00
2022-10-09T19:29:27.790Z,13.95
2022-10-09T19:31:02.954Z,13.94
2022-10-09T19:32:35.121Z,13.87
2022-10-09T19:34:07.665Z,13.85
2022-10-09T19:35:52.043Z,13.86
2022-10-09T19:37:27.460Z,13.86
2022-10-09T19:39:02.863Z,13.89
2022-10-09T19:40:35.213Z,13.89
2022-10-09T19:42:07.264Z,13.89
2022-10-09T19:43:39.697Z,13.85
2022-10-09T19:45:11.748Z,13.84
2022-10-09T19:46:43.950Z,13.83
2022-10-09T19:48:17.489Z,13.86
2022-10-09T19:49:49.763Z,13.83
2022-10-09T19:51:26.894Z,13.85
2022-10-09T19:52:59.310Z,13.81
2022-10-09T19:54:33.028Z,13.79
2022-10-09T19:56:13.254Z,13.77
2022-10-09T19:57:46.776Z,13.71
2022-10-09T19:59:19.364Z,13.68
2022-10-09T20:00:51.698Z,13.66
2022-10-09T20:02:23.802Z,13.66
2022-10-09T20:04:04.957Z,13.71
2022-10-09T20:05:37.388Z,13.67
2022-10-09T20:07:12.700Z,13.68
2022-10-09T20:08:48.546Z,13.73
2022-10-09T20:10:20.660Z,13.71
2022-10-09T20:11:52.717Z,13.69
2022-10-09T20:13:24.714Z,13.66
2022-10-09T20:14:56.706Z,13.67
2022-10-09T20:16:32.371Z,13.68
2022-10-09T20:18:04.445Z,13.68
2022-10-09T20:19:36.541Z,13.67
2022-10-09T20:21:10.169Z,13.70
2022-10-09T20:22:42.302Z,13.69
2022-10-09T20:24:14.463Z,13.64
2022-10-09T20:25:47.864Z,13.64
2022-10-09T20:27:19.733Z,13.66
2022-10-09T20:28:54.137Z,13.64
2022-10-09T20:30:26.143Z,13.62
2022-10-09T20:31:58.143Z,13.58
2022-10-09T20:33:30.231Z,13.56
2022-10-09T20:35:02.901Z,13.55
2022-10-09T20:36:37.355Z,13.57
2022-10-09T20:38:09.392Z,13.55
2022-10-09T20:39:41.518Z,13.52
2022-10-09T20:41:13.795Z,13.47
2022-10-09T20:42:45.799Z,13.41
2022-10-09T20:44:17.874Z,13.38
2022-10-09T20:45:49.933Z,13.32
2022-10-09T20:47:21.927Z,13.26
2022-10-09T20:48:54.575Z,13.23
2022-10-09T20:50:26.684Z,13.21
2022-10-09T20:51:58.778Z,13.18
2022-10-09T20:53:31.248Z,13.18
2022-10-09T20:55:03.326Z,13.15
2022-10-09T20:56:36.935Z,13.15
2022-10-09T20:58:09.061Z,13.14
2022-10-09T20:59:41.262Z,13.11
2022-10-09T21:01:15.620Z,13.05
2022-10-09T21:02:47.814Z,13.05
2022-10-09T21:04:20.153Z,13.01
2022-10-09T21:05:55.268Z,12.95
2022-10-09T21:07:27.267Z,12.93
2022-10-09T21:08:59.328Z,12.89
2022-10-09T21:10:31.329Z,12.84
2022-10-09T21:12:03.396Z,12.79
2022-10-09T21:13:36.254Z,12.74
2022-10-09T21:15:08.559Z,12.67
2022-10-09T21:16:40.558Z,12.62
2022-10-09T21:18:13.580Z,12.59
2022-10-09T21:19:45.615Z,12.57
2022-10-09T21:21:20.487Z,12.61
2022-10-09T21:22:52.842Z,12.56